Airfield :
LOGIN :

Register | Disclaimer

   EN    FR    IT 

 










Legend :    VFR   Marginal VFR   IFR   Intensive IFR   Very Intensive IFR
Visi :
Ceiling :
>= 8 km
>= 3000ft
5 to 8 km
1000 to 3000 ft
1500m to 5 km
500 to 1000 ft
800 to 1500m
200 to 500 ft
< 800m
< 200 ft
Symbols :   Thunderstorms  Fog  Heavy snow  Heavy precipitations  Wind > 20 kt
SIGMETs :     Misc.  Thunderstorms  Icing  Turbulence  Mountain Waves  Volcanic Ashes







- Airport Elevation : 160 ft
- IATA code : LRT
- Download approach charts


LFRH - Lorient Lann Bihoue

CURRENT METAR :
  • 210830Z AUTO 06006KT CAVOK 20/13 Q1013 NOSIG

EXPIRED METARs :
  • 210800Z AUTO 07006KT CAVOK 18/12 Q1013 NOSIG
  • 210730Z AUTO 07008KT CAVOK 17/12 Q1013 NOSIG
  • 210700Z AUTO 07008KT 9000 NSC 16/12 Q1013 NOSIG
  • 210630Z AUTO 07007KT 8000 NSC 15/11 Q1013 NOSIG
  • 210600Z AUTO 06006KT 7000 NSC 13/11 Q1013 NOSIG

TAF AMD TAF LFRH
Valid from the 21 at 06:00 until the 22 at 06:00 UTC


210539Z 2106/2206 05005KT 4000 BR NSC
BECMG 2106/2107 CAVOK
BECMG 2112/2114 25010KT
PROB30 2115/2118 -SHRA
BECMG 2118/2120 05010KT
PROB40 2202/2206 3000 BR BKN002
No reported NOTAMs for that airfield.



MET'MAP, your aeronautical weather chart ! - Copyright ORBIFLY December 2007 - Disclaimer

ORBIFLY MET'MAP TEAM :

Programming & Development : Alexandra Zaïnal
Concept & Development : Baudouin d'Aumeries
Co-Development & Prog : Marc-Olivier Méhu
Technical & hardware support : Manuel Goepfert

Contact : metmap@orbifly.com




SOURCES & CREDITS :

   NOAA